createdAt,value
2018-07-30T00:00:56.922Z,37.85
2018-07-30T00:02:06.322Z,37.76
2018-07-30T00:03:15.749Z,37.76
2018-07-30T00:04:25.419Z,37.56
2018-07-30T00:05:35.083Z,37.76
2018-07-30T00:06:43.999Z,37.76
2018-07-30T00:07:53.409Z,37.66
2018-07-30T00:09:02.816Z,37.76
2018-07-30T00:10:12.472Z,37.66
2018-07-30T00:11:21.892Z,37.56
2018-07-30T00:12:31.551Z,37.66
2018-07-30T00:13:40.725Z,37.66
2018-07-30T00:14:49.871Z,37.56
2018-07-30T00:15:59.025Z,37.66
2018-07-30T00:17:08.431Z,37.66
2018-07-30T00:18:18.094Z,37.56
2018-07-30T00:19:27.506Z,37.46
2018-07-30T00:20:36.915Z,37.66
2018-07-30T00:21:46.121Z,37.66
2018-07-30T00:22:55.586Z,37.56
2018-07-30T00:24:04.747Z,37.56
2018-07-30T00:25:14.154Z,37.56
2018-07-30T00:26:23.310Z,37.66
2018-07-30T00:27:32.453Z,37.56
2018-07-30T00:28:42.103Z,37.56
2018-07-30T00:29:51.534Z,37.56
2018-07-30T00:31:00.424Z,37.56
2018-07-30T00:32:09.624Z,37.56
2018-07-30T00:33:18.545Z,37.56
2018-07-30T00:34:27.950Z,37.37
2018-07-30T00:35:37.107Z,37.37
2018-07-30T00:36:46.261Z,37.66
2018-07-30T00:37:55.937Z,37.27
2018-07-30T00:39:05.094Z,37.37
2018-07-30T00:40:14.487Z,37.37
2018-07-30T00:41:23.390Z,37.46
2018-07-30T00:42:32.291Z,37.46
2018-07-30T00:43:41.176Z,37.56
2018-07-30T00:44:50.333Z,37.56
2018-07-30T00:45:59.496Z,37.56
2018-07-30T00:47:09.426Z,37.66
2018-07-30T00:48:19.042Z,37.56
2018-07-30T00:49:28.566Z,37.56
2018-07-30T00:50:37.467Z,37.56
2018-07-30T00:51:46.868Z,37.46
2018-07-30T00:52:56.013Z,37.66
2018-07-30T00:54:05.168Z,37.56
2018-07-30T00:55:14.824Z,37.56
2018-07-30T00:56:24.501Z,37.56
2018-07-30T00:57:33.929Z,37.56
2018-07-30T00:58:42.818Z,37.66
2018-07-30T00:59:52.251Z,37.46
2018-07-30T01:01:01.405Z,37.56
2018-07-30T01:02:10.546Z,37.56
2018-07-30T01:03:19.434Z,37.66
2018-07-30T01:04:28.319Z,37.56
2018-07-30T01:05:36.948Z,37.56
2018-07-30T01:06:46.600Z,37.56
2018-07-30T01:07:56.268Z,37.56
2018-07-30T01:09:05.416Z,37.56
2018-07-30T01:10:14.815Z,37.56
2018-07-30T01:11:24.472Z,37.56
2018-07-30T01:12:33.627Z,37.56
2018-07-30T01:13:43.023Z,37.56
2018-07-30T01:14:52.685Z,37.56
2018-07-30T01:16:02.344Z,37.76
2018-07-30T01:17:10.976Z,37.56
2018-07-30T01:18:19.871Z,37.66
2018-07-30T01:19:29.530Z,37.85
2018-07-30T01:20:38.741Z,37.85
2018-07-30T01:21:48.399Z,37.93
2018-07-30T01:22:57.549Z,37.95
2018-07-30T01:24:06.953Z,37.85
2018-07-30T01:25:16.367Z,37.95
2018-07-30T01:26:25.534Z,37.95
2018-07-30T01:27:34.932Z,37.95
2018-07-30T01:28:43.894Z,37.95
2018-07-30T01:29:53.304Z,37.95
2018-07-30T01:31:02.715Z,37.93
2018-07-30T01:32:12.379Z,37.93
2018-07-30T01:33:22.080Z,37.95
2018-07-30T01:34:31.750Z,37.85
2018-07-30T01:35:40.908Z,37.93
2018-07-30T01:36:50.070Z,37.93
2018-07-30T01:37:59.226Z,37.85
2018-07-30T01:39:08.619Z,37.85
2018-07-30T01:40:17.530Z,37.85
2018-07-30T01:41:27.196Z,37.95
2018-07-30T01:42:36.340Z,37.85
2018-07-30T01:43:45.738Z,37.95
2018-07-30T01:44:55.139Z,37.95
2018-07-30T01:46:04.537Z,37.95
2018-07-30T01:47:13.938Z,37.95
2018-07-30T01:48:23.351Z,37.95
2018-07-30T01:49:33.004Z,37.84
2018-07-30T01:50:42.413Z,37.95
2018-07-30T01:51:51.558Z,37.95
2018-07-30T01:53:00.456Z,37.95
2018-07-30T01:54:09.856Z,37.95
2018-07-30T01:55:19.030Z,37.93
2018-07-30T01:56:29.096Z,38.15
2018-07-30T01:57:38.240Z,38.13
2018-07-30T01:58:47.123Z,38.13
2018-07-30T01:59:56.562Z,37.93
2018-07-30T02:01:05.722Z,38.23
2018-07-30T02:02:15.406Z,37.85
2018-07-30T02:03:24.812Z,38.23
2018-07-30T02:04:34.296Z,38.15
2018-07-30T02:05:43.185Z,37.84
2018-07-30T02:06:52.378Z,37.85
2018-07-30T02:08:01.790Z,37.84
2018-07-30T02:09:10.939Z,37.84
2018-07-30T02:10:20.093Z,37.85
2018-07-30T02:11:29.757Z,38.15
2018-07-30T02:12:39.412Z,37.84
2018-07-30T02:13:48.559Z,38.15
2018-07-30T02:14:57.199Z,37.74
2018-07-30T02:16:06.602Z,38.15
2018-07-30T02:17:15.488Z,38.13
2018-07-30T02:18:24.649Z,37.76
2018-07-30T02:19:34.067Z,37.85
2018-07-30T02:20:43.213Z,38.13
2018-07-30T02:21:52.871Z,38.23
2018-07-30T02:23:02.033Z,38.32
2018-07-30T02:24:10.938Z,37.74
2018-07-30T02:25:19.861Z,38.15
2018-07-30T02:26:29.263Z,38.32
2018-07-30T02:27:38.419Z,38.03
2018-07-30T02:28:48.074Z,38.05
2018-07-30T02:29:57.474Z,38.13
2018-07-30T02:31:06.359Z,38.05
2018-07-30T02:32:16.300Z,38.05
2018-07-30T02:33:25.458Z,38.03
2018-07-30T02:34:35.130Z,38.13
2018-07-30T02:35:45.066Z,38.05
2018-07-30T02:36:54.223Z,37.95
2018-07-30T02:38:03.624Z,38.15
2018-07-30T02:39:12.522Z,38.03
2018-07-30T02:40:21.684Z,38.05
2018-07-30T02:41:31.351Z,38.03
2018-07-30T02:42:41.024Z,38.05
2018-07-30T02:43:50.434Z,38.05
2018-07-30T02:44:59.617Z,38.03
2018-07-30T02:46:09.331Z,38.03
2018-07-30T02:47:19.264Z,38.05
2018-07-30T02:48:28.685Z,38.34
2018-07-30T02:49:38.099Z,37.85
2018-07-30T02:50:47.508Z,38.15
2018-07-30T02:51:57.334Z,38.23
2018-07-30T02:53:06.739Z,38.13
2018-07-30T02:54:16.162Z,37.93
2018-07-30T02:55:25.330Z,37.93
2018-07-30T02:56:34.737Z,37.93
2018-07-30T02:57:44.694Z,37.95
2018-07-30T02:58:54.583Z,37.93
2018-07-30T03:00:04.030Z,37.95
2018-07-30T03:01:13.200Z,38.13
2018-07-30T03:02:22.346Z,37.93
2018-07-30T03:03:31.497Z,37.93
2018-07-30T03:04:40.905Z,37.93
2018-07-30T03:05:50.062Z,38.05
2018-07-30T03:06:59.206Z,37.93
2018-07-30T03:08:08.093Z,38.24
2018-07-30T03:09:17.575Z,38.03
2018-07-30T03:10:26.764Z,38.13
2018-07-30T03:11:35.910Z,37.95
2018-07-30T03:12:44.803Z,38.05
2018-07-30T03:13:53.948Z,37.93
2018-07-30T03:15:03.695Z,38.05
2018-07-30T03:16:13.356Z,38.03
2018-07-30T03:17:22.246Z,38.13
2018-07-30T03:18:31.917Z,38.03
2018-07-30T03:19:41.062Z,38.13
2018-07-30T03:20:49.954Z,38.13
2018-07-30T03:21:59.356Z,38.13
2018-07-30T03:23:09.015Z,38.23
2018-07-30T03:24:18.942Z,38.13
2018-07-30T03:25:27.831Z,38.42
2018-07-30T03:26:37.758Z,38.42
2018-07-30T03:27:46.913Z,38.52
2018-07-30T03:28:56.849Z,38.62
2018-07-30T03:30:06.766Z,38.71
2018-07-30T03:31:16.708Z,38.81
2018-07-30T03:32:26.381Z,38.62
2018-07-30T03:33:35.531Z,38.71
2018-07-30T03:34:44.929Z,38.52
2018-07-30T03:35:54.083Z,38.62
2018-07-30T03:37:03.244Z,38.52
2018-07-30T03:38:12.672Z,38.71
2018-07-30T03:39:21.821Z,38.62
2018-07-30T03:40:30.966Z,38.42
2018-07-30T03:41:40.627Z,38.52
2018-07-30T03:42:50.293Z,38.62
2018-07-30T03:43:59.967Z,38.52
2018-07-30T03:45:09.368Z,38.52
2018-07-30T03:46:18.512Z,38.71
2018-07-30T03:47:27.665Z,38.71
2018-07-30T03:48:36.816Z,38.71
2018-07-30T03:49:45.726Z,38.62
2018-07-30T03:50:54.869Z,38.62
2018-07-30T03:52:04.288Z,38.62
2018-07-30T03:53:13.443Z,38.62
2018-07-30T03:54:23.103Z,38.71
2018-07-30T03:55:32.525Z,38.62
2018-07-30T03:56:41.420Z,38.52
2018-07-30T03:57:50.309Z,38.62
2018-07-30T03:59:00.065Z,38.62
2018-07-30T04:00:09.979Z,38.62
2018-07-30T04:01:20.097Z,38.62
2018-07-30T04:02:29.259Z,38.42
2018-07-30T04:03:38.931Z,38.52
2018-07-30T04:04:48.081Z,38.62
2018-07-30T04:05:57.800Z,38.71
2018-07-30T04:07:07.613Z,38.42
2018-07-30T04:08:17.537Z,38.62
2018-07-30T04:09:26.970Z,38.42
2018-07-30T04:10:36.367Z,38.62
2018-07-30T04:11:46.037Z,38.42
2018-07-30T04:12:55.440Z,38.71
2018-07-30T04:14:04.333Z,38.71
2018-07-30T04:15:13.470Z,38.71
2018-07-30T04:16:22.619Z,38.71
2018-07-30T04:17:31.508Z,38.71
2018-07-30T04:18:40.662Z,38.71
2018-07-30T04:19:49.819Z,38.81
2018-07-30T04:20:58.728Z,38.81
2018-07-30T04:22:08.447Z,38.81
2018-07-30T04:23:18.366Z,38.91
2018-07-30T04:24:27.781Z,38.81
2018-07-30T04:25:36.421Z,38.91
2018-07-30T04:26:45.841Z,39.1
2018-07-30T04:27:55.268Z,39.08
2018-07-30T04:29:04.661Z,39.1
2018-07-30T04:30:14.081Z,39
2018-07-30T04:31:23.493Z,39
2018-07-30T04:32:33.157Z,38.91
2018-07-30T04:33:42.562Z,38.91
2018-07-30T04:34:52.232Z,39.1
2018-07-30T04:36:01.651Z,39
2018-07-30T04:37:11.066Z,38.91
2018-07-30T04:38:20.221Z,39.1
2018-07-30T04:39:30.147Z,38.81
2018-07-30T04:40:39.306Z,38.98
2018-07-30T04:41:48.711Z,39
2018-07-30T04:42:57.859Z,38.98
2018-07-30T04:44:06.766Z,38.89
2018-07-30T04:45:15.935Z,38.89
2018-07-30T04:46:25.358Z,39.18
2018-07-30T04:47:34.531Z,39.28
2018-07-30T04:48:43.958Z,39.18
2018-07-30T04:49:53.640Z,39.28
2018-07-30T04:51:02.542Z,39.49
2018-07-30T04:52:11.696Z,39.47
2018-07-30T04:53:20.847Z,39.57
2018-07-30T04:54:30.265Z,39.67
2018-07-30T04:55:39.717Z,39.57
2018-07-30T04:56:48.894Z,39.57
2018-07-30T04:57:58.932Z,39.47
2018-07-30T04:59:08.343Z,39.37
2018-07-30T05:00:17.495Z,39.28
2018-07-30T05:01:27.158Z,39.28
2018-07-30T05:02:36.076Z,39.08
2018-07-30T05:03:45.291Z,38.98
2018-07-30T05:04:55.508Z,39.08
2018-07-30T05:06:04.940Z,38.91
2018-07-30T05:07:14.354Z,39.1
2018-07-30T05:08:23.496Z,39.1
2018-07-30T05:09:32.650Z,38.91
2018-07-30T05:10:42.160Z,39.1
2018-07-30T05:11:51.820Z,38.91
2018-07-30T05:13:01.292Z,39
2018-07-30T05:14:10.998Z,38.91
2018-07-30T05:15:20.673Z,38.71
2018-07-30T05:16:30.099Z,38.71
2018-07-30T05:17:38.999Z,38.81
2018-07-30T05:18:47.913Z,38.62
2018-07-30T05:19:57.329Z,38.91
2018-07-30T05:21:07.052Z,38.91
2018-07-30T05:22:16.250Z,38.42
2018-07-30T05:23:25.959Z,38.71
2018-07-30T05:24:35.107Z,38.71
2018-07-30T05:25:44.257Z,38.62
2018-07-30T05:26:53.149Z,38.62
2018-07-30T05:28:02.815Z,38.62
2018-07-30T05:29:12.487Z,38.52
2018-07-30T05:30:21.370Z,38.62
2018-07-30T05:31:30.537Z,38.71
2018-07-30T05:32:40.054Z,38.62
2018-07-30T05:33:49.471Z,38.62
2018-07-30T05:34:58.365Z,38.64
2018-07-30T05:36:07.538Z,38.62
2018-07-30T05:37:17.039Z,38.62
2018-07-30T05:38:27.229Z,38.52
2018-07-30T05:39:36.641Z,38.64
2018-07-30T05:40:46.352Z,38.54
2018-07-30T05:41:56.031Z,38.54
2018-07-30T05:43:05.430Z,38.52
2018-07-30T05:44:15.098Z,38.62
2018-07-30T05:45:24.507Z,38.64
2018-07-30T05:46:34.175Z,38.44
2018-07-30T05:47:43.583Z,38.54
2018-07-30T05:48:52.475Z,38.54
2018-07-30T05:50:01.746Z,38.64
2018-07-30T05:51:11.738Z,38.64
2018-07-30T05:52:20.629Z,38.54
2018-07-30T05:53:30.033Z,38.54
2018-07-30T05:54:39.183Z,38.54
2018-07-30T05:55:48.594Z,38.73
2018-07-30T05:56:57.497Z,38.54
2018-07-30T05:58:06.900Z,38.64
2018-07-30T05:59:16.563Z,38.73
2018-07-30T06:00:25.725Z,38.73
2018-07-30T06:01:35.389Z,38.64
2018-07-30T06:02:44.812Z,38.54
2018-07-30T06:03:54.222Z,38.64
2018-07-30T06:05:03.438Z,38.64
2018-07-30T06:06:13.367Z,38.54
2018-07-30T06:07:22.544Z,38.64
2018-07-30T06:08:32.215Z,38.54
2018-07-30T06:09:42.044Z,38.54
2018-07-30T06:10:51.784Z,38.64
2018-07-30T06:12:01.441Z,38.64
2018-07-30T06:13:11.216Z,38.64
2018-07-30T06:14:20.376Z,38.64
2018-07-30T06:15:30.093Z,38.54
2018-07-30T06:16:39.756Z,38.64
2018-07-30T06:17:49.166Z,38.54
2018-07-30T06:18:58.566Z,38.44
2018-07-30T06:20:07.750Z,38.64
2018-07-30T06:21:17.666Z,38.64
2018-07-30T06:22:27.072Z,38.44
2018-07-30T06:23:37.114Z,38.64
2018-07-30T06:24:46.541Z,38.64
2018-07-30T06:25:55.966Z,38.73
2018-07-30T06:27:04.877Z,38.54
2018-07-30T06:28:14.309Z,38.54
2018-07-30T06:29:24.296Z,38.83
2018-07-30T06:30:33.467Z,38.44
2018-07-30T06:31:42.889Z,38.64
2018-07-30T06:32:52.674Z,38.73
2018-07-30T06:34:01.904Z,38.73
2018-07-30T06:35:11.839Z,38.73
2018-07-30T06:36:21.253Z,38.73
2018-07-30T06:37:31.194Z,38.65
2018-07-30T06:38:40.865Z,38.54
2018-07-30T06:39:49.776Z,38.83
2018-07-30T06:40:58.925Z,38.73
2018-07-30T06:42:08.600Z,38.73
2018-07-30T06:43:18.029Z,38.83
2018-07-30T06:44:26.965Z,38.54
2018-07-30T06:45:36.394Z,38.46
2018-07-30T06:46:45.805Z,38.44
2018-07-30T06:47:55.279Z,38.73
2018-07-30T06:49:05.298Z,38.64
2018-07-30T06:50:14.723Z,38.54
2018-07-30T06:51:23.864Z,38.65
2018-07-30T06:52:33.016Z,38.93
2018-07-30T06:53:42.435Z,38.64
2018-07-30T06:54:51.843Z,38.64
2018-07-30T06:56:01.527Z,38.75
2018-07-30T06:57:10.677Z,38.64
2018-07-30T06:58:20.085Z,38.83
2018-07-30T06:59:29.798Z,38.85
2018-07-30T07:00:39.174Z,38.95
2018-07-30T07:01:48.848Z,38.73
2018-07-30T07:02:58.007Z,38.83
2018-07-30T07:04:07.926Z,38.73
2018-07-30T07:05:17.584Z,38.85
2018-07-30T07:06:27.261Z,38.85
2018-07-30T07:07:36.952Z,38.83
2018-07-30T07:08:45.875Z,38.83
2018-07-30T07:09:55.273Z,38.75
2018-07-30T07:11:04.441Z,38.85
2018-07-30T07:12:14.103Z,39.03
2018-07-30T07:13:23.787Z,39.03
2018-07-30T07:14:32.937Z,38.93
2018-07-30T07:15:42.599Z,38.85
2018-07-30T07:16:51.506Z,38.83
2018-07-30T07:18:01.036Z,39.14
2018-07-30T07:19:10.720Z,39.14
2018-07-30T07:20:19.883Z,38.93
2018-07-30T07:21:29.727Z,39.04
2018-07-30T07:22:39.292Z,38.95
2018-07-30T07:23:48.724Z,38.95
2018-07-30T07:24:58.139Z,39.04
2018-07-30T07:26:07.040Z,38.93
2018-07-30T07:27:16.731Z,39.14
2018-07-30T07:28:25.896Z,38.95
2018-07-30T07:29:35.309Z,38.95
2018-07-30T07:30:44.988Z,38.95
2018-07-30T07:31:54.203Z,39.14
2018-07-30T07:33:03.875Z,39.04
2018-07-30T07:34:13.301Z,39.04
2018-07-30T07:35:22.470Z,39.04
2018-07-30T07:36:32.186Z,39.04
2018-07-30T07:37:41.604Z,39.14
2018-07-30T07:38:51.015Z,39.14
2018-07-30T07:41:08.570Z,39.04
2018-07-30T07:42:17.475Z,39.24
2018-07-30T07:43:26.393Z,39.04
2018-07-30T07:44:35.313Z,38.95
2018-07-30T07:45:44.490Z,39.04
2018-07-30T07:46:54.451Z,39.24
2018-07-30T07:48:03.614Z,39.14
2018-07-30T07:49:12.915Z,39.04
2018-07-30T07:50:22.952Z,39.12
2018-07-30T07:51:33.537Z,39.04
2018-07-30T07:52:43.498Z,39.14
2018-07-30T07:53:52.674Z,39.04
2018-07-30T07:55:02.089Z,39.14
2018-07-30T07:56:11.246Z,39.14
2018-07-30T07:57:20.673Z,38.85
2018-07-30T07:58:30.337Z,39.14
2018-07-30T07:59:39.509Z,39.14
2018-07-30T08:00:48.413Z,39.14
2018-07-30T08:01:57.564Z,38.85
2018-07-30T08:03:07.497Z,39.14
2018-07-30T08:04:16.923Z,38.85
2018-07-30T08:05:25.817Z,38.85
2018-07-30T08:06:35.230Z,38.85
2018-07-30T08:07:44.894Z,39.14
2018-07-30T08:08:54.830Z,38.95
2018-07-30T08:10:04.258Z,39.04
2018-07-30T08:11:13.681Z,38.85
2018-07-30T08:12:23.443Z,39.04
2018-07-30T08:13:32.888Z,39.14
2018-07-30T08:14:42.328Z,39.14
2018-07-30T08:15:51.487Z,39.14
2018-07-30T08:17:00.661Z,39.04
2018-07-30T08:18:10.342Z,39.14
2018-07-30T08:19:19.831Z,39.14
2018-07-30T08:20:29.241Z,39.14
2018-07-30T08:21:38.920Z,39.14
2018-07-30T08:22:48.347Z,39.14
2018-07-30T08:23:58.036Z,39.14
2018-07-30T08:25:07.191Z,39.04
2018-07-30T08:26:16.602Z,39.04
2018-07-30T08:27:26.288Z,39.14
2018-07-30T08:28:35.703Z,39.14
2018-07-30T08:29:45.438Z,39.04
2018-07-30T08:30:54.862Z,39.14
2018-07-30T08:32:04.550Z,39.43
2018-07-30T08:33:13.890Z,38.95
2018-07-30T08:34:23.049Z,38.95
2018-07-30T08:35:32.724Z,39.24
2018-07-30T08:36:42.644Z,39.14
2018-07-30T08:37:52.381Z,39.14
2018-07-30T08:39:01.350Z,39.43
2018-07-30T08:40:11.274Z,39.34
2018-07-30T08:41:20.440Z,39.24
2018-07-30T08:42:30.116Z,39.34
2018-07-30T08:43:39.016Z,39.34
2018-07-30T08:44:48.442Z,39.14
2018-07-30T08:45:57.861Z,39.34
2018-07-30T08:47:07.525Z,39.34
2018-07-30T08:48:16.943Z,39.14
2018-07-30T08:49:25.841Z,39.14
2018-07-30T08:50:35.258Z,39.34
2018-07-30T08:51:43.905Z,39.34
2018-07-30T08:52:53.587Z,39.53
2018-07-30T08:54:03.288Z,39.04
2018-07-30T08:55:12.956Z,39.34
2018-07-30T08:56:22.142Z,39.34
2018-07-30T08:57:31.885Z,39.14
2018-07-30T08:58:41.548Z,39.14
2018-07-30T08:59:51.219Z,39.14
2018-07-30T09:01:00.956Z,39.14
2018-07-30T09:02:10.110Z,39.43
2018-07-30T09:03:19.536Z,39.43
2018-07-30T09:04:28.944Z,39.24
2018-07-30T09:05:38.639Z,39.14
2018-07-30T09:06:48.067Z,39.24
2018-07-30T09:07:57.761Z,39.14
2018-07-30T09:09:07.166Z,39.43
2018-07-30T09:10:16.578Z,39.24
2018-07-30T09:11:25.767Z,39.14
2018-07-30T09:12:35.749Z,39.43
2018-07-30T09:13:45.573Z,39.24
2018-07-30T09:14:54.483Z,39.53
2018-07-30T09:16:03.646Z,39.62
2018-07-30T09:17:13.338Z,39.53
2018-07-30T09:18:23.143Z,39.53
2018-07-30T09:19:32.647Z,39.53
2018-07-30T09:20:42.321Z,39.53
2018-07-30T09:21:51.502Z,39.43
2018-07-30T09:23:00.422Z,39.62
2018-07-30T09:24:09.830Z,39.62
2018-07-30T09:25:19.507Z,39.62
2018-07-30T09:26:28.407Z,39.24
2018-07-30T09:27:37.813Z,39.43
2018-07-30T09:28:47.237Z,39.53
2018-07-30T09:29:56.409Z,39.53
2018-07-30T09:31:06.083Z,39.53
2018-07-30T09:32:15.262Z,39.62
2018-07-30T09:33:23.923Z,39.53
2018-07-30T09:34:33.877Z,39.43
2018-07-30T09:35:43.298Z,39.62
2018-07-30T09:36:52.750Z,39.72
2018-07-30T09:38:01.652Z,39.53
2018-07-30T09:39:11.125Z,39.53
2018-07-30T09:40:21.535Z,39.43
2018-07-30T09:41:30.953Z,39.43
2018-07-30T09:42:40.112Z,39.43
2018-07-30T09:43:49.278Z,39.82
2018-07-30T09:44:59.028Z,39.53
2018-07-30T09:46:08.590Z,39.82
2018-07-30T09:47:17.236Z,39.72
2018-07-30T09:48:26.395Z,39.62
2018-07-30T09:49:36.059Z,39.82
2018-07-30T09:50:45.741Z,39.82
2018-07-30T09:51:55.675Z,39.82
2018-07-30T09:53:05.095Z,39.82
2018-07-30T09:54:14.508Z,39.62
2018-07-30T09:55:23.658Z,39.82
2018-07-30T09:56:32.814Z,39.82
2018-07-30T09:57:42.228Z,39.72
2018-07-30T09:58:51.133Z,39.82
2018-07-30T10:00:00.988Z,39.62
2018-07-30T10:01:09.881Z,39.82
2018-07-30T10:02:19.287Z,39.82
2018-07-30T10:03:28.465Z,39.72
2018-07-30T10:04:37.894Z,39.82
2018-07-30T10:05:47.561Z,39.62
2018-07-30T10:06:57.226Z,39.82
2018-07-30T10:08:06.909Z,39.72
2018-07-30T10:09:16.326Z,39.82
2018-07-30T10:10:25.505Z,39.72
2018-07-30T10:11:34.981Z,39.82
2018-07-30T10:12:45.069Z,39.82
2018-07-30T10:13:54.746Z,39.72
2018-07-30T10:15:03.912Z,39.72
2018-07-30T10:16:13.578Z,39.72
2018-07-30T10:17:23.037Z,39.82
2018-07-30T10:18:32.744Z,39.53
2018-07-30T10:19:41.635Z,39.82
2018-07-30T10:20:50.541Z,39.62
2018-07-30T10:22:00.205Z,39.82
2018-07-30T10:23:09.606Z,39.82
2018-07-30T10:24:18.542Z,39.72
2018-07-30T10:25:27.714Z,39.72
2018-07-30T10:26:36.886Z,39.72
2018-07-30T10:27:46.057Z,39.82
2018-07-30T10:28:55.530Z,39.82
2018-07-30T10:30:04.691Z,39.72
2018-07-30T10:31:14.116Z,39.82
2018-07-30T10:32:23.786Z,39.72
2018-07-30T10:33:33.199Z,39.72
2018-07-30T10:34:42.354Z,39.82
2018-07-30T10:35:51.251Z,39.82
2018-07-30T10:37:00.159Z,39.72
2018-07-30T10:38:09.077Z,39.72
2018-07-30T10:39:19.135Z,39.92
2018-07-30T10:40:28.289Z,39.72
2018-07-30T10:41:37.433Z,39.72
2018-07-30T10:42:46.829Z,39.72
2018-07-30T10:43:56.745Z,39.82
2018-07-30T10:45:05.900Z,39.82
2018-07-30T10:46:15.409Z,39.72
2018-07-30T10:47:24.654Z,39.72
2018-07-30T10:48:34.078Z,39.72
2018-07-30T10:49:43.498Z,39.72
2018-07-30T10:50:52.648Z,39.82
2018-07-30T10:52:01.297Z,39.82
2018-07-30T10:53:11.270Z,39.72
2018-07-30T10:54:20.440Z,39.82
2018-07-30T10:55:29.341Z,39.72
2018-07-30T10:56:38.503Z,39.72
2018-07-30T10:57:47.666Z,39.82
2018-07-30T10:58:57.084Z,39.72
2018-07-30T11:00:06.266Z,39.82
2018-07-30T11:01:15.182Z,39.72
2018-07-30T11:02:24.594Z,39.72
2018-07-30T11:03:34.253Z,39.62
2018-07-30T11:04:43.144Z,39.62
2018-07-30T11:05:52.822Z,39.72
2018-07-30T11:07:02.254Z,39.72
2018-07-30T11:08:11.432Z,39.72
2018-07-30T11:09:20.895Z,39.72
2018-07-30T11:10:32.070Z,39.72
2018-07-30T11:11:41.226Z,39.62
2018-07-30T11:12:50.891Z,39.72
2018-07-30T11:14:00.569Z,39.62
2018-07-30T11:15:10.252Z,39.53
2018-07-30T11:16:20.407Z,39.62
2018-07-30T11:17:29.321Z,39.62
2018-07-30T11:18:38.491Z,39.62
2018-07-30T11:19:48.200Z,39.53
2018-07-30T11:20:57.595Z,39.62
2018-07-30T11:22:06.747Z,39.62
2018-07-30T11:23:16.202Z,39.62
2018-07-30T11:24:25.665Z,39.62
2018-07-30T11:25:34.826Z,39.62
2018-07-30T11:26:43.983Z,39.43
2018-07-30T11:27:53.706Z,39.43
2018-07-30T11:29:03.606Z,39.62
2018-07-30T11:30:12.766Z,39.62
2018-07-30T11:31:21.421Z,39.62
2018-07-30T11:32:30.342Z,39.53
2018-07-30T11:33:40.134Z,39.62
2018-07-30T11:34:49.903Z,39.43
2018-07-30T11:35:59.838Z,39.72
2018-07-30T11:37:08.746Z,39.72
2018-07-30T11:38:18.234Z,39.62
2018-07-30T11:39:27.965Z,39.36
2018-07-30T11:40:37.370Z,39.62
2018-07-30T11:41:46.271Z,39.24
2018-07-30T11:42:55.709Z,39.62
2018-07-30T11:44:05.518Z,39.24
2018-07-30T11:45:14.945Z,39.24
2018-07-30T11:46:24.380Z,39.24
2018-07-30T11:47:33.814Z,39.34
2018-07-30T11:48:43.143Z,39.53
2018-07-30T11:49:52.771Z,39.24
2018-07-30T11:51:02.484Z,39.24
2018-07-30T11:52:11.632Z,39.34
2018-07-30T11:53:21.046Z,39.34
2018-07-30T11:54:30.930Z,39.36
2018-07-30T11:55:40.438Z,39.24
2018-07-30T11:56:50.095Z,39.34
2018-07-30T11:57:59.761Z,39.53
2018-07-30T11:59:08.904Z,39.62
2018-07-30T12:00:17.803Z,39.65
2018-07-30T12:01:27.848Z,39.43
2018-07-30T12:02:36.869Z,39.53
2018-07-30T12:03:46.294Z,39.36
2018-07-30T12:04:55.720Z,39.34
2018-07-30T12:06:04.623Z,39.62
2018-07-30T12:07:13.256Z,39.62
2018-07-30T12:08:22.430Z,39.24
2018-07-30T12:09:31.642Z,39.26
2018-07-30T12:10:40.780Z,39.34
2018-07-30T12:11:49.937Z,39.62
2018-07-30T12:12:59.606Z,39.62
2018-07-30T12:14:08.812Z,39.34
2018-07-30T12:15:17.970Z,39.43
2018-07-30T12:16:27.177Z,39.43
2018-07-30T12:17:37.122Z,39.65
2018-07-30T12:18:46.816Z,39.62
2018-07-30T12:19:56.314Z,39.45
2018-07-30T12:21:06.050Z,39.24
2018-07-30T12:22:15.229Z,39.65
2018-07-30T12:23:24.645Z,39.34
2018-07-30T12:24:33.806Z,39.34
2018-07-30T12:25:43.485Z,39.36
2018-07-30T12:26:53.211Z,39.34
2018-07-30T12:28:02.645Z,39.43
2018-07-30T12:29:12.262Z,39.34
2018-07-30T12:30:21.658Z,39.34
2018-07-30T12:31:32.593Z,39.24
2018-07-30T12:32:42.279Z,39.43
2018-07-30T12:33:51.195Z,39.53
2018-07-30T12:35:00.304Z,39.34
2018-07-30T12:36:10.038Z,39.34
2018-07-30T12:37:19.213Z,39.34
2018-07-30T12:38:28.134Z,39.14
2018-07-30T12:39:37.820Z,39.24
2018-07-30T12:40:46.977Z,39.34
2018-07-30T12:41:56.831Z,39.43
2018-07-30T12:43:06.757Z,39.53
2018-07-30T12:44:15.934Z,39.34
2018-07-30T12:45:25.107Z,39.36
2018-07-30T12:46:34.794Z,39.36
2018-07-30T12:47:43.695Z,39.34
2018-07-30T12:48:53.649Z,39.43
2018-07-30T12:50:02.814Z,39.34
2018-07-30T12:51:11.992Z,39.34
2018-07-30T12:52:21.165Z,39.36
2018-07-30T12:53:30.336Z,39.36
2018-07-30T12:54:39.509Z,39.43
2018-07-30T12:55:48.931Z,39.43
2018-07-30T12:56:58.226Z,39.34
2018-07-30T12:58:07.660Z,39.34
2018-07-30T12:59:16.824Z,39.34
2018-07-30T13:00:25.992Z,39.45
2018-07-30T13:01:35.183Z,39.43
2018-07-30T13:02:44.360Z,39.43
2018-07-30T13:03:53.851Z,39.45
2018-07-30T13:05:03.283Z,39.43
2018-07-30T13:06:12.687Z,39.34
2018-07-30T13:07:22.108Z,39.24
2018-07-30T13:08:31.564Z,39.26
2018-07-30T13:09:40.453Z,39.26
2018-07-30T13:10:49.874Z,39.16
2018-07-30T13:11:59.565Z,39.43
2018-07-30T13:13:09.025Z,39.34
2018-07-30T13:14:17.918Z,39.43
2018-07-30T13:15:27.596Z,39.24
2018-07-30T13:16:36.743Z,39.34
2018-07-30T13:17:46.409Z,39.24
2018-07-30T13:18:55.306Z,39.45
2018-07-30T13:20:05.001Z,39.45
2018-07-30T13:21:14.410Z,39.36
2018-07-30T13:22:24.139Z,39.26
2018-07-30T13:23:33.048Z,39.62
2018-07-30T13:24:41.940Z,39.26
2018-07-30T13:25:50.835Z,39.55
2018-07-30T13:26:59.981Z,39.24
2018-07-30T13:28:09.379Z,39.65
2018-07-30T13:29:18.858Z,39.45
2018-07-30T13:30:28.265Z,39.65
2018-07-30T13:31:36.910Z,39.36
2018-07-30T13:32:46.457Z,39.26
2018-07-30T13:33:55.749Z,39.26
2018-07-30T13:35:04.921Z,39.65
2018-07-30T13:36:14.346Z,39.65
2018-07-30T13:37:24.006Z,39.55
2018-07-30T13:38:33.425Z,39.45
2018-07-30T13:39:43.090Z,39.26
2018-07-30T13:40:52.767Z,39.55
2018-07-30T13:42:02.735Z,39.36
2018-07-30T13:43:11.631Z,39.65
2018-07-30T13:44:21.041Z,39.26
2018-07-30T13:45:30.578Z,39.36
2018-07-30T13:46:40.298Z,39.75
2018-07-30T13:47:49.213Z,39.55
2018-07-30T13:48:57.870Z,39.55
2018-07-30T13:50:06.766Z,39.36
2018-07-30T13:51:16.682Z,39.26
2018-07-30T13:52:26.110Z,39.65
2018-07-30T13:53:35.537Z,39.55
2018-07-30T13:54:44.694Z,39.55
2018-07-30T13:55:54.192Z,39.45
2018-07-30T13:57:03.345Z,39.65
2018-07-30T13:58:12.510Z,39.65
2018-07-30T13:59:21.402Z,39.45
2018-07-30T14:00:31.083Z,39.26
2018-07-30T14:01:40.506Z,39.36
2018-07-30T14:02:49.404Z,39.26
2018-07-30T14:03:58.830Z,39.36
2018-07-30T14:05:07.725Z,39.36
2018-07-30T14:06:17.335Z,39.45
2018-07-30T14:07:27.274Z,39.36
2018-07-30T14:08:35.915Z,39.36
2018-07-30T14:09:45.322Z,39.16
2018-07-30T14:10:54.731Z,39.26
2018-07-30T14:12:04.402Z,39.26
2018-07-30T14:13:13.054Z,39.26
2018-07-30T14:14:22.229Z,39.26
2018-07-30T14:15:31.909Z,39.26
2018-07-30T14:16:41.323Z,39.26
2018-07-30T14:17:51.000Z,39.36
2018-07-30T14:19:00.157Z,39.26
2018-07-30T14:20:09.225Z,39.36
2018-07-30T14:21:19.209Z,39.36
2018-07-30T14:22:28.633Z,40.03
2018-07-30T14:23:38.575Z,39.45
2018-07-30T14:24:48.254Z,39.36
2018-07-30T14:25:57.186Z,39.45
2018-07-30T14:27:06.639Z,39.45
2018-07-30T14:28:16.067Z,39.45
2018-07-30T14:29:25.920Z,39.16
2018-07-30T14:30:35.589Z,39.45
2018-07-30T14:31:45.047Z,39.16
2018-07-30T14:32:54.773Z,39.26
2018-07-30T14:34:03.940Z,39.26
2018-07-30T14:35:12.857Z,39.26
2018-07-30T14:36:22.016Z,39.45
2018-07-30T14:37:31.444Z,39.26
2018-07-30T14:38:40.896Z,39.36
2018-07-30T14:39:50.305Z,39.26
2018-07-30T14:40:59.734Z,39.36
2018-07-30T14:42:09.180Z,39.26
2018-07-30T14:43:18.667Z,39.26
2018-07-30T14:44:28.329Z,39.26
2018-07-30T14:45:37.237Z,39.26
2018-07-30T14:46:46.397Z,39.26
2018-07-30T14:47:55.818Z,39.26
2018-07-30T14:49:05.518Z,39.26
2018-07-30T14:50:14.695Z,39.26
2018-07-30T14:51:24.378Z,39.26
2018-07-30T14:52:33.549Z,39.36
2018-07-30T14:53:42.771Z,39.36
2018-07-30T14:54:52.168Z,39.26
2018-07-30T14:56:01.322Z,39.26